createdAt,value
2022-11-03T00:01:57.154Z,10.30
2022-11-03T00:04:23.833Z,10.41
2022-11-03T00:06:52.569Z,10.54
2022-11-03T00:09:21.137Z,10.36
2022-11-03T00:11:50.677Z,10.45
2022-11-03T00:14:17.831Z,10.22
2022-11-03T00:16:44.980Z,10.33
2022-11-03T00:19:12.020Z,10.46
2022-11-03T00:21:38.805Z,10.35
2022-11-03T00:24:05.794Z,10.69
2022-11-03T00:26:34.095Z,10.66
2022-11-03T00:29:06.057Z,10.58
2022-11-03T00:31:37.887Z,10.30
2022-11-03T00:34:05.254Z,10.60
2022-11-03T00:36:34.373Z,10.48
2022-11-03T00:39:01.243Z,10.48
2022-11-03T00:41:28.337Z,10.25
2022-11-03T00:43:54.998Z,9.95
2022-11-03T00:46:22.298Z,10.16
2022-11-03T00:48:49.270Z,10.19
2022-11-03T00:51:18.810Z,10.20
2022-11-03T00:53:59.819Z,10.27
2022-11-03T00:56:32.414Z,10.23
2022-11-03T00:59:01.820Z,10.17
2022-11-03T01:01:36.283Z,10.36
2022-11-03T01:04:24.577Z,10.34
2022-11-03T01:06:54.308Z,10.40
2022-11-03T01:09:23.721Z,10.42
2022-11-03T01:11:52.981Z,10.25
2022-11-03T01:14:19.941Z,10.27
2022-11-03T01:16:46.370Z,10.28
2022-11-03T01:19:12.894Z,10.07
2022-11-03T01:21:39.484Z,10.08
2022-11-03T01:24:06.283Z,10.24
2022-11-03T01:26:32.749Z,9.93
2022-11-03T01:29:00.513Z,9.91
2022-11-03T01:31:27.836Z,9.89
2022-11-03T01:33:56.186Z,10.00
2022-11-03T01:36:23.200Z,10.12
2022-11-03T01:38:49.977Z,10.21
2022-11-03T01:41:21.954Z,10.17
2022-11-03T01:44:09.172Z,10.16
2022-11-03T01:46:40.523Z,10.01
2022-11-03T01:49:15.081Z,9.87
2022-11-03T01:51:46.206Z,9.87
2022-11-03T01:54:18.350Z,9.91
2022-11-03T01:56:46.845Z,9.85
2022-11-03T01:59:16.588Z,10.12
2022-11-03T02:01:45.376Z,9.92
2022-11-03T02:04:19.327Z,10.01
2022-11-03T02:06:51.071Z,9.96
2022-11-03T02:09:18.529Z,10.06
2022-11-03T02:12:13.922Z,10.19
2022-11-03T02:14:56.258Z,10.27
2022-11-03T02:17:26.816Z,10.35
2022-11-03T02:20:01.235Z,10.19
2022-11-03T02:22:49.412Z,10.03
2022-11-03T02:25:42.173Z,9.89
2022-11-03T02:28:09.470Z,9.92
2022-11-03T02:30:43.981Z,9.90
2022-11-03T02:33:29.559Z,9.93
2022-11-03T02:36:03.715Z,9.92
2022-11-03T02:38:32.203Z,9.88
2022-11-03T02:41:03.110Z,10.06
2022-11-03T02:43:30.219Z,10.26
2022-11-03T02:45:56.694Z,10.12
2022-11-03T02:48:23.236Z,10.44
2022-11-03T02:50:49.672Z,10.33
2022-11-03T02:53:16.683Z,10.51
2022-11-03T02:55:53.343Z,10.68
2022-11-03T02:58:38.180Z,10.45
2022-11-03T03:01:14.801Z,10.62
2022-11-03T03:03:48.044Z,10.66
2022-11-03T03:06:24.792Z,10.44
2022-11-03T03:08:56.172Z,10.19
2022-11-03T03:11:37.589Z,10.29
2022-11-03T03:14:16.206Z,10.37
2022-11-03T03:16:45.324Z,10.28
2022-11-03T03:19:30.112Z,10.34
2022-11-03T03:22:01.295Z,10.18
2022-11-03T03:24:46.814Z,10.15
2022-11-03T03:27:16.072Z,9.91
2022-11-03T03:29:53.134Z,10.06
2022-11-03T03:32:24.267Z,10.18
2022-11-03T03:34:52.757Z,10.00
2022-11-03T03:37:21.112Z,10.20
2022-11-03T03:39:52.470Z,10.06
2022-11-03T03:42:21.702Z,10.19
2022-11-03T03:44:50.358Z,9.77
2022-11-03T03:47:29.961Z,10.20
2022-11-03T03:49:57.209Z,10.46
2022-11-03T03:52:24.580Z,10.09
2022-11-03T03:54:51.915Z,10.17
2022-11-03T03:57:24.230Z,10.20
2022-11-03T03:59:50.879Z,10.32
2022-11-03T04:02:17.444Z,10.35
2022-11-03T04:04:44.010Z,10.60
2022-11-03T04:07:29.068Z,10.70
2022-11-03T04:09:55.560Z,10.66
2022-11-03T04:12:40.624Z,10.61
2022-11-03T04:15:26.356Z,10.72
2022-11-03T04:18:11.091Z,10.83
2022-11-03T04:21:09.587Z,10.53
2022-11-03T04:23:36.008Z,10.42
2022-11-03T04:26:04.202Z,10.41
2022-11-03T04:28:30.658Z,10.51
2022-11-03T04:31:01.192Z,10.53
2022-11-03T04:33:30.010Z,10.45
2022-11-03T04:35:59.236Z,10.50
2022-11-03T04:38:27.437Z,10.38
2022-11-03T04:40:56.190Z,10.22
2022-11-03T04:43:29.379Z,10.15
2022-11-03T04:45:55.845Z,10.09
2022-11-03T04:48:22.925Z,10.25
2022-11-03T04:50:53.123Z,10.07
2022-11-03T04:53:21.359Z,10.09
2022-11-03T04:55:50.333Z,10.12
2022-11-03T04:58:28.558Z,10.22
2022-11-03T05:00:59.330Z,10.02
2022-11-03T05:03:30.979Z,10.35
2022-11-03T05:05:57.640Z,10.40
2022-11-03T05:08:24.903Z,10.65
2022-11-03T05:10:51.345Z,10.28
2022-11-03T05:13:23.225Z,10.25
2022-11-03T05:15:52.837Z,10.62
2022-11-03T05:18:27.288Z,10.56
2022-11-03T05:21:00.983Z,10.61
2022-11-03T05:23:30.800Z,10.66
2022-11-03T05:25:59.095Z,10.69
2022-11-03T05:28:30.556Z,10.65
2022-11-03T05:30:57.228Z,10.25
2022-11-03T05:33:23.670Z,10.38
2022-11-03T05:35:50.184Z,10.42
2022-11-03T05:38:20.509Z,10.48
2022-11-03T05:40:50.501Z,10.39
2022-11-03T05:43:18.175Z,10.46
2022-11-03T05:45:44.942Z,10.46
2022-11-03T05:48:27.874Z,10.28
2022-11-03T05:50:56.064Z,10.29
2022-11-03T05:53:28.515Z,10.51
2022-11-03T05:55:56.980Z,10.42
2022-11-03T05:58:29.213Z,10.37
2022-11-03T06:00:57.578Z,10.46
2022-11-03T06:03:27.418Z,10.58
2022-11-03T06:05:54.022Z,10.39
2022-11-03T06:10:58.253Z,10.46
2022-11-03T06:13:34.731Z,10.36
2022-11-03T06:16:26.521Z,10.33
2022-11-03T06:18:53.008Z,10.51
2022-11-03T06:21:24.476Z,10.58
2022-11-03T06:23:53.857Z,10.68
2022-11-03T06:26:27.169Z,10.38
2022-11-03T06:28:55.239Z,10.39
2022-11-03T06:31:27.703Z,10.33
2022-11-03T06:33:55.389Z,10.54
2022-11-03T06:36:25.968Z,10.57
2022-11-03T06:38:57.602Z,10.66
2022-11-03T06:41:27.077Z,10.53
2022-11-03T06:43:54.150Z,10.38
2022-11-03T06:46:23.867Z,10.37
2022-11-03T06:48:52.541Z,10.42
2022-11-03T06:51:22.258Z,10.74
2022-11-03T06:53:51.258Z,10.54
2022-11-03T06:56:26.602Z,10.61
2022-11-03T06:58:55.370Z,10.75
2022-11-03T07:01:29.595Z,10.64
2022-11-03T07:04:23.826Z,10.74
2022-11-03T07:06:53.541Z,10.78
2022-11-03T07:09:23.924Z,10.88
2022-11-03T07:11:57.189Z,10.93
2022-11-03T07:14:31.733Z,10.62
2022-11-03T07:17:04.861Z,10.74
2022-11-03T07:19:38.991Z,11.24
2022-11-03T07:23:14.125Z,11.24
2022-11-03T07:26:01.212Z,11.21
2022-11-03T07:28:38.733Z,11.25
2022-11-03T07:31:16.917Z,11.33
2022-11-03T07:33:43.941Z,11.53
2022-11-03T07:36:18.153Z,11.91
2022-11-03T07:38:47.955Z,12.02
2022-11-03T07:41:20.094Z,11.65
2022-11-03T07:44:10.538Z,12.18
2022-11-03T07:46:36.997Z,12.33
2022-11-03T07:49:03.462Z,12.01
2022-11-03T07:51:45.613Z,12.53
2022-11-03T07:54:28.616Z,12.55
2022-11-03T07:57:05.920Z,12.60
2022-11-03T07:59:39.021Z,12.81
2022-11-03T08:02:26.884Z,12.67
2022-11-03T08:04:53.416Z,12.67
2022-11-03T08:07:19.863Z,13.00
2022-11-03T08:09:46.329Z,12.88
2022-11-03T08:12:12.751Z,13.16
2022-11-03T08:14:39.187Z,13.13
2022-11-03T08:17:05.728Z,12.76
2022-11-03T08:19:32.194Z,12.71
2022-11-03T08:21:58.685Z,12.99
2022-11-03T08:24:25.178Z,12.92
2022-11-03T08:26:51.801Z,13.15
2022-11-03T08:29:18.315Z,12.99
2022-11-03T08:31:44.909Z,13.12
2022-11-03T08:34:11.432Z,12.94
2022-11-03T08:36:37.971Z,13.27
2022-11-03T08:39:05.251Z,12.92
2022-11-03T08:41:31.750Z,12.63
2022-11-03T08:43:58.199Z,12.97
2022-11-03T08:46:24.695Z,13.09
2022-11-03T08:48:51.893Z,13.35
2022-11-03T08:51:18.302Z,13.26
2022-11-03T08:53:44.905Z,13.51
2022-11-03T08:56:14.213Z,13.66
2022-11-03T08:58:42.174Z,13.71
2022-11-03T09:01:08.630Z,13.73
2022-11-03T09:03:35.582Z,13.91
2022-11-03T09:06:02.207Z,13.78
2022-11-03T09:11:15.197Z,15.57
2022-11-03T09:13:41.698Z,15.43
2022-11-03T09:16:08.458Z,15.53
2022-11-03T09:18:34.893Z,15.30
2022-11-03T09:21:01.408Z,15.41
2022-11-03T09:23:27.826Z,16.03
2022-11-03T09:25:54.235Z,16.06
2022-11-03T09:28:20.656Z,16.06
2022-11-03T09:30:47.146Z,16.59
2022-11-03T09:33:13.608Z,16.89
2022-11-03T09:35:40.042Z,16.63
2022-11-03T09:38:08.012Z,16.79
2022-11-03T09:40:36.010Z,17.34
2022-11-03T09:43:02.810Z,16.93
2022-11-03T09:45:29.305Z,17.18
2022-11-03T09:47:56.508Z,17.62
2022-11-03T09:50:23.429Z,17.90
2022-11-03T09:52:52.428Z,17.39
2022-11-03T09:55:25.413Z,16.95
2022-11-03T09:58:01.535Z,16.23
2022-11-03T10:00:28.414Z,16.16
2022-11-03T10:02:55.722Z,16.12
2022-11-03T10:05:28.779Z,16.08
2022-11-03T10:08:02.991Z,15.97
2022-11-03T10:10:30.365Z,16.07
2022-11-03T10:12:57.181Z,16.20
2022-11-03T10:15:25.345Z,15.86
2022-11-03T10:17:52.057Z,15.92
2022-11-03T10:20:21.300Z,16.34
2022-11-03T10:22:52.393Z,15.42
2022-11-03T10:25:26.512Z,15.93
2022-11-03T10:27:53.023Z,15.61
2022-11-03T10:30:19.458Z,15.94
2022-11-03T10:32:45.871Z,15.45
2022-11-03T10:35:35.428Z,15.64
2022-11-03T10:38:22.392Z,15.89
2022-11-03T10:40:48.983Z,15.49
2022-11-03T10:43:15.504Z,15.93
2022-11-03T10:45:41.934Z,15.68
2022-11-03T10:48:10.811Z,15.82
2022-11-03T10:50:39.924Z,16.22
2022-11-03T10:53:16.932Z,15.83
2022-11-03T10:55:43.968Z,15.99
2022-11-03T10:58:10.986Z,16.13
2022-11-03T11:00:37.942Z,16.20
2022-11-03T11:03:06.376Z,16.52
2022-11-03T11:05:33.134Z,16.37
2022-11-03T11:08:00.010Z,15.99
2022-11-03T11:10:29.130Z,16.15
2022-11-03T11:13:23.547Z,16.46
2022-11-03T11:16:16.338Z,15.96
2022-11-03T11:18:42.708Z,16.49
2022-11-03T11:21:17.898Z,16.66
2022-11-03T11:23:46.492Z,16.29
2022-11-03T11:26:37.398Z,16.74
2022-11-03T11:29:10.103Z,16.67
2022-11-03T11:31:40.186Z,16.77
2022-11-03T11:34:09.766Z,16.93
2022-11-03T11:36:36.159Z,16.46
2022-11-03T11:39:04.504Z,16.75
2022-11-03T11:42:08.534Z,16.84
2022-11-03T11:44:47.930Z,17.37
2022-11-03T11:47:33.448Z,17.08
2022-11-03T11:50:06.252Z,17.03
2022-11-03T11:53:00.259Z,17.19
2022-11-03T11:55:38.055Z,16.98
2022-11-03T11:58:12.543Z,16.91
2022-11-03T12:00:51.261Z,17.07
2022-11-03T12:03:22.585Z,16.76
2022-11-03T12:05:52.706Z,16.56
2022-11-03T12:08:21.099Z,16.86
2022-11-03T12:10:55.380Z,17.08
2022-11-03T12:13:54.286Z,16.83
2022-11-03T12:16:28.373Z,16.50
2022-11-03T12:18:55.312Z,16.43
2022-11-03T12:21:55.660Z,16.49
2022-11-03T12:24:32.188Z,16.76
2022-11-03T12:26:59.787Z,16.59
2022-11-03T12:29:26.640Z,16.79
2022-11-03T12:31:53.486Z,16.95
2022-11-03T12:34:19.995Z,16.21
2022-11-03T12:36:48.018Z,16.48
2022-11-03T12:39:17.123Z,16.91
2022-11-03T12:41:43.587Z,16.63
2022-11-03T12:44:10.052Z,16.77
2022-11-03T12:46:36.586Z,16.60
2022-11-03T12:49:03.074Z,16.90
2022-11-03T12:51:29.749Z,16.93
2022-11-03T12:53:56.159Z,16.60
2022-11-03T12:56:22.586Z,16.63
2022-11-03T12:58:49.032Z,16.49
2022-11-03T13:01:15.562Z,16.33
2022-11-03T13:03:43.386Z,16.87
2022-11-03T13:06:11.615Z,16.55
2022-11-03T13:08:38.060Z,16.39
2022-11-03T13:11:25.063Z,16.04
2022-11-03T13:13:52.532Z,16.27
2022-11-03T13:16:19.462Z,15.93
2022-11-03T13:18:45.906Z,15.88
2022-11-03T13:21:13.411Z,15.90
2022-11-03T13:23:40.848Z,16.08
2022-11-03T13:26:07.510Z,16.01
2022-11-03T13:28:33.957Z,16.11
2022-11-03T13:31:00.447Z,15.71
2022-11-03T13:33:26.853Z,15.64
2022-11-03T13:35:53.367Z,15.88
2022-11-03T13:38:19.838Z,16.00
2022-11-03T13:41:08.180Z,16.35
2022-11-03T13:43:32.639Z,16.41
2022-11-03T13:46:02.258Z,15.95
2022-11-03T13:51:17.594Z,15.79
2022-11-03T13:56:30.645Z,15.92
2022-11-03T14:01:43.993Z,15.80
2022-11-03T14:06:57.049Z,15.34
2022-11-03T14:09:23.992Z,15.73
2022-11-03T14:12:09.237Z,15.62
2022-11-03T14:14:35.653Z,15.69
2022-11-03T14:17:02.125Z,15.16
2022-11-03T14:19:36.542Z,15.42
2022-11-03T14:22:06.232Z,15.43
2022-11-03T14:24:32.682Z,15.67
2022-11-03T14:26:59.090Z,15.30
2022-11-03T14:29:25.549Z,15.11
2022-11-03T14:31:51.966Z,14.85
2022-11-03T14:34:18.414Z,14.97
2022-11-03T14:36:44.878Z,14.81
2022-11-03T14:39:11.291Z,14.87
2022-11-03T14:41:55.956Z,14.94
2022-11-03T14:44:22.389Z,14.84
2022-11-03T14:46:48.843Z,14.88
2022-11-03T14:49:15.276Z,14.78
2022-11-03T14:51:41.788Z,14.92
2022-11-03T14:54:08.249Z,14.70
2022-11-03T14:56:34.663Z,15.02
2022-11-03T14:59:01.184Z,14.57
2022-11-03T15:01:27.945Z,14.66
2022-11-03T15:03:54.474Z,14.63
2022-11-03T15:06:21.583Z,14.67
2022-11-03T15:08:51.951Z,14.56
2022-11-03T15:11:21.678Z,14.61
2022-11-03T15:13:49.870Z,14.60
2022-11-03T15:16:17.957Z,14.57
2022-11-03T15:18:44.641Z,14.23
2022-11-03T15:21:11.378Z,14.41
2022-11-03T15:26:24.715Z,14.68
2022-11-03T15:28:51.617Z,14.43
2022-11-03T15:31:18.069Z,14.44
2022-11-03T15:33:44.489Z,14.45
2022-11-03T15:36:11.806Z,14.10
2022-11-03T15:38:38.328Z,14.37
2022-11-03T15:41:17.160Z,14.03
2022-11-03T15:43:44.904Z,14.26
2022-11-03T15:46:11.939Z,14.52
2022-11-03T15:48:38.962Z,14.50
2022-11-03T15:51:05.927Z,14.46
2022-11-03T15:53:32.514Z,14.60
2022-11-03T15:55:58.977Z,14.32
2022-11-03T15:58:25.477Z,14.16
2022-11-03T16:00:52.075Z,14.52
2022-11-03T16:03:18.622Z,14.44
2022-11-03T16:05:45.081Z,14.42
2022-11-03T16:08:11.586Z,14.48
2022-11-03T16:10:38.243Z,14.60
2022-11-03T16:13:04.657Z,14.63
2022-11-03T16:15:31.119Z,14.79
2022-11-03T16:18:02.630Z,14.55
2022-11-03T16:20:32.312Z,14.50
2022-11-03T16:22:58.751Z,14.52
2022-11-03T16:25:25.267Z,14.84
2022-11-03T16:27:51.713Z,14.89
2022-11-03T16:30:18.163Z,14.75
2022-11-03T16:32:44.896Z,14.46
2022-11-03T16:35:11.338Z,14.73
2022-11-03T16:37:37.814Z,14.45
2022-11-03T16:40:05.338Z,14.42
2022-11-03T16:42:38.165Z,14.72
2022-11-03T16:45:15.528Z,14.39
2022-11-03T16:47:42.022Z,14.44
2022-11-03T16:50:08.507Z,14.21
2022-11-03T16:52:34.940Z,14.44
2022-11-03T16:55:01.347Z,14.39
2022-11-03T16:57:27.781Z,14.40
2022-11-03T16:59:54.227Z,14.35
2022-11-03T17:02:20.655Z,14.40
2022-11-03T17:04:47.123Z,14.39
2022-11-03T17:07:13.554Z,14.34
2022-11-03T17:09:40.024Z,14.25
2022-11-03T17:12:06.580Z,14.23
2022-11-03T17:14:33.024Z,14.18
2022-11-03T17:16:59.430Z,13.95
2022-11-03T17:19:25.867Z,14.29
2022-11-03T17:21:52.302Z,14.46
2022-11-03T17:24:18.950Z,13.96
2022-11-03T17:26:58.626Z,14.06
2022-11-03T17:29:54.138Z,14.16
2022-11-03T17:32:36.941Z,14.05
2022-11-03T17:35:04.183Z,14.19
2022-11-03T17:37:30.627Z,14.17
2022-11-03T17:39:57.166Z,14.42
2022-11-03T17:42:25.972Z,14.50
2022-11-03T17:44:55.386Z,14.20
2022-11-03T17:47:23.660Z,14.41
2022-11-03T17:49:50.393Z,14.15
2022-11-03T17:52:26.746Z,14.17
2022-11-03T17:54:56.673Z,14.06
2022-11-03T17:57:23.478Z,14.13
2022-11-03T17:59:52.302Z,14.13
2022-11-03T18:02:21.925Z,14.03
2022-11-03T18:04:49.065Z,14.05
2022-11-03T18:07:26.800Z,14.09
2022-11-03T18:09:53.709Z,13.93
2022-11-03T18:12:43.494Z,14.02
2022-11-03T18:15:17.499Z,13.74
2022-11-03T18:17:43.959Z,13.63
2022-11-03T18:20:22.030Z,14.11
2022-11-03T18:22:48.640Z,14.15
2022-11-03T18:25:17.462Z,14.21
2022-11-03T18:27:45.780Z,14.00
2022-11-03T18:30:16.941Z,13.80
2022-11-03T18:32:45.617Z,13.88
2022-11-03T18:35:21.929Z,13.94
2022-11-03T18:37:48.892Z,14.12
2022-11-03T18:40:15.622Z,14.14
2022-11-03T18:42:42.255Z,14.00
2022-11-03T18:45:17.381Z,14.50
2022-11-03T18:47:44.126Z,13.98
2022-11-03T18:50:15.810Z,14.16
2022-11-03T18:52:44.854Z,13.69
2022-11-03T18:55:12.701Z,13.53
2022-11-03T18:57:39.787Z,13.91
2022-11-03T19:00:27.893Z,14.27
2022-11-03T19:02:54.293Z,14.00
2022-11-03T19:05:20.744Z,14.02
2022-11-03T19:07:49.903Z,13.90
2022-11-03T19:10:22.281Z,14.17
2022-11-03T19:12:48.738Z,13.77
2022-11-03T19:15:20.089Z,13.72
2022-11-03T19:17:49.273Z,13.78
2022-11-03T19:20:18.152Z,13.82
2022-11-03T19:22:46.706Z,13.98
2022-11-03T19:25:14.581Z,14.01
2022-11-03T19:27:45.191Z,13.68
2022-11-03T19:30:15.730Z,13.24
2022-11-03T19:32:52.012Z,13.45
2022-11-03T19:35:25.840Z,13.62
2022-11-03T19:38:01.041Z,13.89
2022-11-03T19:40:28.485Z,13.44
2022-11-03T19:42:55.209Z,13.22
2022-11-03T19:45:23.799Z,13.28
2022-11-03T19:48:22.609Z,13.59
2022-11-03T19:50:44.018Z,13.30
2022-11-03T19:53:23.779Z,13.48
2022-11-03T19:55:50.455Z,13.54
2022-11-03T19:58:20.224Z,13.43
2022-11-03T20:00:47.789Z,13.66
2022-11-03T20:03:14.439Z,13.33
2022-11-03T20:05:47.929Z,13.18
2022-11-03T20:08:19.694Z,13.11
2022-11-03T20:10:47.836Z,13.31
2022-11-03T20:13:17.908Z,13.17
2022-11-03T20:15:44.399Z,13.28
2022-11-03T20:18:14.880Z,13.33
2022-11-03T20:20:43.445Z,13.40
2022-11-03T20:23:38.242Z,13.57
2022-11-03T20:26:16.175Z,13.34
2022-11-03T20:28:42.923Z,13.78
2022-11-03T20:31:11.707Z,13.56
2022-11-03T20:33:39.540Z,13.33
2022-11-03T20:36:06.582Z,13.53
2022-11-03T20:38:33.567Z,13.53
2022-11-03T20:41:03.858Z,13.58
2022-11-03T20:43:49.588Z,13.26
2022-11-03T20:46:23.484Z,13.47
2022-11-03T20:48:50.478Z,13.89
2022-11-03T20:51:19.001Z,13.64
2022-11-03T20:53:45.821Z,13.70
2022-11-03T20:56:19.813Z,13.85
2022-11-03T20:58:47.065Z,13.81
2022-11-03T21:01:16.332Z,13.77
2022-11-03T21:03:58.973Z,13.33
2022-11-03T21:06:28.038Z,13.53
2022-11-03T21:08:55.100Z,13.63
2022-11-03T21:11:25.088Z,13.69
2022-11-03T21:13:52.713Z,13.48
2022-11-03T21:16:37.819Z,13.49
2022-11-03T21:19:33.291Z,13.36
2022-11-03T21:22:00.299Z,13.48
2022-11-03T21:26:53.242Z,13.51
2022-11-03T21:29:32.949Z,13.63
2022-11-03T21:32:07.821Z,13.74
2022-11-03T21:34:34.267Z,14.02
2022-11-03T21:37:00.663Z,13.66
2022-11-03T21:39:29.089Z,13.39
2022-11-03T21:42:14.701Z,13.63
2022-11-03T21:44:41.459Z,14.10
2022-11-03T21:47:08.357Z,13.50
2022-11-03T21:49:43.581Z,13.49
2022-11-03T21:52:15.409Z,13.22
2022-11-03T21:54:42.280Z,13.29
2022-11-03T21:57:11.073Z,13.33
2022-11-03T21:59:37.654Z,13.22
2022-11-03T22:02:05.269Z,13.10
2022-11-03T22:04:31.796Z,13.55
2022-11-03T22:06:59.196Z,13.89
2022-11-03T22:09:26.917Z,13.49
2022-11-03T22:11:54.130Z,13.46
2022-11-03T22:14:20.668Z,13.29
2022-11-03T22:16:47.423Z,13.47
2022-11-03T22:19:36.792Z,13.54
2022-11-03T22:22:29.024Z,13.47
2022-11-03T22:25:14.410Z,13.60
2022-11-03T22:27:41.387Z,13.57
2022-11-03T22:30:27.021Z,13.59
2022-11-03T22:32:55.354Z,13.72
2022-11-03T22:35:41.825Z,14.10
2022-11-03T22:38:13.504Z,13.77
2022-11-03T22:41:00.080Z,13.66
2022-11-03T22:44:03.210Z,13.60
2022-11-03T22:46:29.873Z,13.50
2022-11-03T22:48:56.289Z,13.64
2022-11-03T22:51:22.962Z,13.63
2022-11-03T22:54:07.974Z,13.57
2022-11-03T22:56:34.382Z,13.50
2022-11-03T22:59:00.801Z,13.26
2022-11-03T23:01:27.796Z,13.45
2022-11-03T23:03:54.891Z,13.30
2022-11-03T23:06:35.998Z,13.09
2022-11-03T23:09:02.723Z,13.21
2022-11-03T23:11:32.500Z,13.13
2022-11-03T23:14:08.566Z,13.04
2022-11-03T23:16:41.335Z,12.97
2022-11-03T23:19:29.369Z,13.03
2022-11-03T23:21:56.143Z,13.03
2022-11-03T23:24:45.137Z,13.23
2022-11-03T23:27:13.624Z,13.36
2022-11-03T23:29:40.342Z,13.68
2022-11-03T23:32:07.080Z,13.56
2022-11-03T23:34:35.040Z,13.92
2022-11-03T23:37:02.166Z,13.64
2022-11-03T23:39:28.618Z,13.77
2022-11-03T23:41:55.057Z,13.55
2022-11-03T23:44:21.514Z,13.74
2022-11-03T23:47:06.449Z,13.67
2022-11-03T23:49:32.869Z,13.47
2022-11-03T23:51:59.357Z,13.82
2022-11-03T23:54:27.166Z,13.61
2022-11-03T23:57:12.169Z,13.34
2022-11-03T23:59:38.769Z,13.37
